Time;durP1;ratioP1;P1;durP2;ratioP2;P2;SDS_P1;SDS_P2;PMS_P1;PMS_P2;Temp;Humidity;BMP_temperature;BMP_pressure;BME280_temperature;BME280_humidity;BME280_pressure;Samples;Min_cycle;Max_cycle;Signal;HPM_P1;HPM_P2
2022/09/27 00:00:20;;;;;;;2.63;0.25;;;;;;;12.18;100.00;99439.25;5028035;28;20112;-64
2022/09/27 00:02:46;;;;;;;4.63;0.55;;;;;;;12.24;100.00;99441.16;5026768;28;20112;-64
2022/09/27 00:05:11;;;;;;;3.03;0.38;;;;;;;12.22;100.00;99430.09;5027667;28;20567;-65
2022/09/27 00:07:37;;;;;;;0.85;0.30;;;;;;;12.24;100.00;99417.66;5025109;28;20469;-66
2022/09/27 00:10:03;;;;;;;0.95;0.30;;;;;;;12.20;100.00;99419.00;5028741;28;20082;-66
2022/09/27 00:12:29;;;;;;;1.05;0.40;;;;;;;12.22;100.00;99423.06;5026336;28;20405;-67
2022/09/27 00:14:54;;;;;;;1.35;0.50;;;;;;;12.23;100.00;99414.22;5023960;28;20033;-65
2022/09/27 00:17:20;;;;;;;1.40;0.40;;;;;;;12.22;100.00;99415.22;5025065;28;20044;-64
2022/09/27 00:19:45;;;;;;;4.72;0.68;;;;;;;12.22;100.00;99396.13;5018322;28;20444;-67
2022/09/27 00:22:11;;;;;;;1.33;0.40;;;;;;;12.15;100.00;99367.31;5014517;28;20033;-67
2022/09/27 00:24:36;;;;;;;3.17;0.50;;;;;;;12.12;100.00;99333.72;5026218;28;20389;-64
2022/09/27 00:27:02;;;;;;;2.03;0.70;;;;;;;12.08;100.00;99340.31;5023912;28;20032;-63
2022/09/27 00:29:28;;;;;;;2.15;0.40;;;;;;;12.06;100.00;99354.53;5021822;28;20385;-64
2022/09/27 00:31:53;;;;;;;1.02;0.30;;;;;;;12.05;100.00;99352.91;5014970;28;20116;-65
2022/09/27 00:34:24;;;;;;;2.30;0.30;;;;;;;12.03;100.00;99347.06;5008466;28;20029;-66
2022/09/27 00:36:51;;;;;;;0.65;0.25;;;;;;;12.05;100.00;99326.81;5009468;28;20032;-63
2022/09/27 00:39:18;;;;;;;2.45;0.77;;;;;;;12.03;100.00;99306.09;5026994;28;20048;-64
2022/09/27 00:41:44;;;;;;;1.20;0.30;;;;;;;12.08;100.00;99295.94;5023146;28;20034;-64
2022/09/27 00:44:32;;;;;;;1.10;0.30;;;;;;;12.16;100.00;99311.50;5021959;28;20053;-66
2022/09/27 00:47:03;;;;;;;1.95;0.50;;;;;;;12.25;100.00;99323.47;5017163;28;20021;-66
2022/09/27 00:49:34;;;;;;;3.03;0.30;;;;;;;12.29;100.00;99316.84;5022009;28;20029;-66
2022/09/27 00:52:08;;;;;;;1.48;0.43;;;;;;;12.34;100.00;99312.88;5025055;28;20045;-64
2022/09/27 00:54:38;;;;;;;1.13;0.40;;;;;;;12.38;100.00;99329.81;5019149;28;20041;-63
2022/09/27 00:57:04;;;;;;;1.10;0.30;;;;;;;12.40;100.00;99343.50;5022812;28;20044;-65
2022/09/27 00:59:37;;;;;;;2.45;0.40;;;;;;;12.38;100.00;99343.69;5018873;28;20037;-66
2022/09/27 01:02:05;;;;;;;0.50;0.20;;;;;;;12.38;100.00;99330.63;5028080;28;20072;-67
2022/09/27 01:04:31;;;;;;;3.78;0.40;;;;;;;12.36;100.00;99321.34;5019400;28;20036;-65
2022/09/27 01:06:57;;;;;;;1.00;0.20;;;;;;;12.28;100.00;99307.44;5022244;28;20173;-65
2022/09/27 01:09:23;;;;;;;0.75;0.30;;;;;;;12.28;100.00;99304.81;5027172;28;20508;-64
2022/09/27 01:12:14;;;;;;;3.10;0.30;;;;;;;12.26;100.00;99298.97;5025746;28;20032;-66
2022/09/27 01:14:52;;;;;;;1.75;0.28;;;;;;;12.24;100.00;99287.88;5012863;28;20045;-64
2022/09/27 01:17:46;;;;;;;0.73;0.43;;;;;;;12.18;100.00;99278.19;5027095;28;20052;-66
2022/09/27 01:20:24;;;;;;;0.85;0.20;;;;;;;12.14;100.00;99266.47;5016263;28;20108;-66
2022/09/27 01:23:38;;;;;;;0.50;0.20;;;;;;;12.11;100.00;99260.81;5021422;28;20068;-65
2022/09/27 01:26:41;;;;;;;2.05;0.32;;;;;;;12.16;100.00;99263.69;5021496;28;20034;-65
2022/09/27 01:29:27;;;;;;;0.60;0.32;;;;;;;12.18;100.00;99265.13;5019350;28;20345;-63
2022/09/27 01:32:36;;;;;;;2.38;0.20;;;;;;;12.15;100.00;99249.81;5018697;28;20035;-63
2022/09/27 01:35:14;;;;;;;2.08;0.30;;;;;;;12.22;100.00;99253.31;5006910;28;20073;-65
2022/09/27 01:38:00;;;;;;;2.13;0.60;;;;;;;12.25;100.00;99249.53;5018587;28;20037;-63
2022/09/27 01:40:39;;;;;;;1.23;0.40;;;;;;;12.29;100.00;99248.94;5022194;28;20068;-63
2022/09/27 01:43:26;;;;;;;2.15;0.40;;;;;;;12.23;100.00;99244.50;5015008;28;20107;-65
2022/09/27 01:45:58;;;;;;;1.27;0.25;;;;;;;12.21;100.00;99228.19;5016344;28;20036;-63
2022/09/27 01:48:29;;;;;;;2.25;0.32;;;;;;;12.21;100.00;99215.13;5020902;28;20258;-65
2022/09/27 01:51:03;;;;;;;0.57;0.20;;;;;;;12.24;100.00;99216.56;5009245;28;20087;-65
2022/09/27 01:53:46;;;;;;;1.63;0.25;;;;;;;12.26;100.00;99207.56;5016335;28;20128;-65
2022/09/27 01:56:34;;;;;;;1.02;0.30;;;;;;;12.23;100.00;99205.31;5026044;28;20087;-66
2022/09/27 01:59:08;;;;;;;2.53;0.25;;;;;;;12.18;100.00;99199.03;5021261;28;20052;-65
2022/09/27 02:01:37;;;;;;;1.15;0.30;;;;;;;12.17;100.00;99208.66;5023368;28;20041;-65
2022/09/27 02:04:07;;;;;;;0.75;0.40;;;;;;;12.19;100.00;99206.69;5026785;28;20026;-64
2022/09/27 02:06:37;;;;;;;2.25;0.57;;;;;;;12.20;100.00;99208.31;5017072;28;20429;-63
2022/09/27 02:09:08;;;;;;;0.47;0.30;;;;;;;12.26;100.00;99202.34;5027571;28;20056;-62
2022/09/27 02:11:37;;;;;;;1.67;0.30;;;;;;;12.30;100.00;99206.16;5023385;28;20048;-66
2022/09/27 02:14:09;;;;;;;0.77;0.22;;;;;;;12.38;100.00;99212.28;5025909;28;20473;-65
2022/09/27 02:16:44;;;;;;;1.92;0.30;;;;;;;12.43;100.00;99218.56;5023877;28;20037;-65
2022/09/27 02:19:44;;;;;;;1.20;0.30;;;;;;;12.47;100.00;99219.00;5027866;28;20022;-66
2022/09/27 02:22:23;;;;;;;2.15;0.43;;;;;;;12.49;100.00;99238.72;5022356;28;20074;-66
2022/09/27 02:24:59;;;;;;;1.05;0.30;;;;;;;12.44;100.00;99243.69;5028108;28;20041;-63
2022/09/27 02:27:27;;;;;;;;;;;;;;;12.29;100.00;99248.13;5029068;28;20104;-65
2022/09/27 02:30:10;;;;;;;1.13;0.30;;;;;;;12.27;100.00;99250.16;5028429;28;19917;-66
2022/09/27 02:32:37;;;;;;;0.40;0.20;;;;;;;12.23;100.00;99244.50;5027940;28;20030;-63
2022/09/27 02:35:14;;;;;;;0.93;0.20;;;;;;;12.19;100.00;99243.25;5030159;28;20030;-65
2022/09/27 02:37:40;;;;;;;1.23;0.30;;;;;;;12.18;100.00;99232.97;5029705;28;20033;-66
2022/09/27 02:40:06;;;;;;;0.70;0.20;;;;;;;12.23;100.00;99228.81;5022727;28;20030;-66
2022/09/27 02:42:33;;;;;;;1.80;0.20;;;;;;;12.23;100.00;99218.38;5020743;28;20076;-63
2022/09/27 02:44:58;;;;;;;3.25;0.40;;;;;;;12.26;100.00;99220.63;5012130;28;20095;-66
2022/09/27 02:47:39;;;;;;;0.35;0.20;;;;;;;12.16;100.00;99207.06;5028285;28;20029;-65
2022/09/27 02:50:26;;;;;;;0.70;0.25;;;;;;;12.15;100.00;99205.44;5025148;28;20048;-63
2022/09/27 02:53:06;;;;;;;1.17;0.20;;;;;;;12.14;100.00;99193.38;5025342;28;20041;-63
2022/09/27 02:55:56;;;;;;;2.15;0.30;;;;;;;12.18;100.00;99189.41;5026912;28;20121;-62
2022/09/27 02:58:49;;;;;;;0.88;0.20;;;;;;;12.14;100.00;99180.31;5026761;28;20180;-63
2022/09/27 03:01:39;;;;;;;1.48;0.20;;;;;;;12.11;100.00;99183.28;5023533;28;20120;-66
2022/09/27 03:04:10;;;;;;;0.88;0.30;;;;;;;12.15;100.00;99168.88;5020542;28;20124;-65
2022/09/27 03:06:40;;;;;;;0.30;0.10;;;;;;;12.10;100.00;99165.22;5018165;28;20048;-64
2022/09/27 03:09:16;;;;;;;2.67;0.17;;;;;;;12.06;100.00;99156.13;5016730;28;20033;-66
2022/09/27 03:11:42;;;;;;;0.80;0.10;;;;;;;12.04;100.00;99145.06;5012332;28;20068;-63
2022/09/27 03:14:08;;;;;;;1.33;0.00;;;;;;;12.03;100.00;99141.66;5026786;28;20056;-65
2022/09/27 03:16:33;;;;;;;0.30;0.10;;;;;;;12.02;100.00;99140.03;5022016;28;20072;-66
2022/09/27 03:18:59;;;;;;;1.08;0.10;;;;;;;12.03;100.00;99138.22;5029585;28;20072;-66
2022/09/27 03:21:24;;;;;;;0.45;0.00;;;;;;;12.00;100.00;99126.34;5021244;28;20132;-63
2022/09/27 03:23:50;;;;;;;0.30;0.10;;;;;;;12.04;100.00;99119.75;5027152;28;20037;-66
2022/09/27 03:26:15;;;;;;;3.13;0.10;;;;;;;12.04;100.00;99114.53;5023169;28;20556;-62
2022/09/27 03:28:41;;;;;;;0.28;0.10;;;;;;;12.07;100.00;99108.16;5021718;28;20408;-63
2022/09/27 03:31:06;;;;;;;0.65;0.20;;;;;;;12.12;100.00;99098.75;5023329;28;20021;-65
2022/09/27 03:33:32;;;;;;;0.52;0.20;;;;;;;12.19;100.00;99090.97;5022472;28;20060;-65
2022/09/27 03:35:58;;;;;;;1.65;0.20;;;;;;;12.19;100.00;99097.00;5025885;28;20110;-63
2022/09/27 03:38:24;;;;;;;1.40;0.20;;;;;;;12.19;100.00;99089.19;5025504;28;20118;-63
2022/09/27 03:40:49;;;;;;;1.08;0.30;;;;;;;12.22;100.00;99090.63;5018219;28;20397;-65
2022/09/27 03:43:15;;;;;;;1.20;0.28;;;;;;;12.14;100.00;99094.16;5019091;28;20140;-65
2022/09/27 03:45:43;;;;;;;2.80;0.30;;;;;;;12.10;100.00;99092.91;5027647;28;20116;-66
2022/09/27 03:48:09;;;;;;;1.63;0.40;;;;;;;12.10;100.00;99082.47;5020430;28;20025;-63
2022/09/27 03:50:34;;;;;;;0.45;0.20;;;;;;;12.08;100.00;99089.69;5018429;28;20083;-65
2022/09/27 03:53:00;;;;;;;2.00;0.20;;;;;;;12.07;100.00;99089.88;5019198;28;20033;-64
2022/09/27 03:55:25;;;;;;;0.77;0.30;;;;;;;12.08;100.00;99079.25;5017479;28;20520;-64
2022/09/27 03:57:51;;;;;;;2.00;0.20;;;;;;;12.06;100.00;99077.81;5020191;28;20142;-65
2022/09/27 04:00:16;;;;;;;2.42;0.40;;;;;;;12.05;100.00;99073.59;5028941;28;20056;-64
2022/09/27 04:02:43;;;;;;;0.50;0.20;;;;;;;12.06;100.00;99076.00;5027758;28;20128;-63
2022/09/27 04:05:09;;;;;;;0.20;0.10;;;;;;;12.08;100.00;99068.00;5029209;28;20440;-63
2022/09/27 04:07:34;;;;;;;3.30;0.20;;;;;;;12.11;100.00;99067.63;5027114;28;20060;-66
2022/09/27 04:10:00;;;;;;;1.50;0.28;;;;;;;12.09;100.00;99059.97;5027638;28;20516;-64
2022/09/27 04:12:26;;;;;;;4.43;0.50;;;;;;;12.15;100.00;99066.25;5011546;28;20488;-64
2022/09/27 04:14:51;;;;;;;1.52;0.30;;;;;;;12.18;100.00;99058.84;5021873;28;20026;-63
2022/09/27 04:17:17;;;;;;;2.42;0.30;;;;;;;12.23;100.00;99056.47;5012219;28;20061;-64
2022/09/27 04:19:42;;;;;;;0.60;0.40;;;;;;;12.25;100.00;99056.28;5028871;28;20055;-65
2022/09/27 04:22:08;;;;;;;1.45;0.30;;;;;;;12.24;100.00;99058.09;5028992;28;20028;-64
2022/09/27 04:24:33;;;;;;;2.55;0.30;;;;;;;12.23;100.00;99060.91;5019659;28;20457;-65
2022/09/27 04:26:59;;;;;;;0.75;0.30;;;;;;;12.22;100.00;99065.31;5027279;28;20280;-66
2022/09/27 04:29:25;;;;;;;1.98;0.30;;;;;;;12.23;100.00;99061.69;5027137;28;20033;-65
2022/09/27 04:31:50;;;;;;;0.65;0.20;;;;;;;12.24;100.00;99063.31;5028492;28;20036;-65
2022/09/27 04:34:16;;;;;;;0.60;0.20;;;;;;;12.23;100.00;99061.69;5023239;28;20519;-65
2022/09/27 04:36:41;;;;;;;1.48;0.20;;;;;;;12.20;100.00;99050.81;5027775;28;20592;-63
2022/09/27 04:39:09;;;;;;;2.05;0.20;;;;;;;12.13;100.00;99053.38;5028187;28;20083;-63
2022/09/27 04:41:35;;;;;;;0.15;0.10;;;;;;;12.03;100.00;99058.09;5028436;28;20471;-64
2022/09/27 04:44:01;;;;;;;0.60;0.10;;;;;;;11.97;100.00;99048.41;5026485;28;20165;-65
2022/09/27 04:46:33;;;;;;;0.40;0.10;;;;;;;12.01;100.00;99041.03;5027897;28;20034;-64
2022/09/27 04:48:59;;;;;;;2.65;0.10;;;;;;;12.02;100.00;99051.28;5024974;28;20120;-64
2022/09/27 04:51:25;;;;;;;0.60;0.10;;;;;;;12.02;100.00;99046.06;5028092;28;20021;-65
2022/09/27 04:53:51;;;;;;;0.80;0.10;;;;;;;11.98;100.00;99047.41;5026653;28;20350;-65
2022/09/27 04:56:17;;;;;;;0.65;0.10;;;;;;;11.96;100.00;99044.19;5028024;28;20024;-64
2022/09/27 04:58:42;;;;;;;0.20;0.10;;;;;;;11.98;100.00;99049.22;5027063;28;20505;-63
2022/09/27 05:01:08;;;;;;;2.47;0.22;;;;;;;12.00;100.00;99050.66;5025108;28;20162;-65
2022/09/27 05:03:33;;;;;;;1.52;0.20;;;;;;;12.03;100.00;99046.84;5021003;28;20037;-66
2022/09/27 05:05:59;;;;;;;0.60;0.20;;;;;;;11.97;100.00;99040.59;5026627;28;20108;-65
2022/09/27 05:08:25;;;;;;;0.40;0.10;;;;;;;11.95;100.00;99042.56;5026478;28;20083;-65
2022/09/27 05:10:51;;;;;;;0.38;0.10;;;;;;;11.90;100.00;99045.75;5026062;28;20034;-65
2022/09/27 05:13:17;;;;;;;0.22;0.10;;;;;;;11.92;100.00;99045.56;5013931;28;20032;-65
2022/09/27 05:15:43;;;;;;;0.20;0.10;;;;;;;11.93;100.00;99040.16;5021626;28;20124;-65
2022/09/27 05:18:11;;;;;;;0.68;0.17;;;;;;;12.01;100.00;99035.78;5025885;28;20107;-64
2022/09/27 05:20:36;;;;;;;0.63;0.20;;;;;;;11.97;100.00;99035.38;5028328;28;20497;-65
2022/09/27 05:23:03;;;;;;;2.75;0.20;;;;;;;11.98;100.00;99042.19;5014077;28;20030;-64
2022/09/27 05:25:30;;;;;;;3.60;0.20;;;;;;;11.99;100.00;99043.81;5015158;28;20033;-66
2022/09/27 05:27:57;;;;;;;0.95;0.10;;;;;;;12.02;100.00;99037.41;5018962;28;20061;-65
2022/09/27 05:30:23;;;;;;;1.35;0.20;;;;;;;12.00;100.00;99035.00;5026464;28;20026;-65
2022/09/27 05:32:49;;;;;;;2.22;0.10;;;;;;;12.02;100.00;99038.22;5027850;28;20040;-64
2022/09/27 05:35:18;;;;;;;0.40;0.17;;;;;;;12.04;100.00;99038.84;5022506;28;20420;-64
2022/09/27 05:37:50;;;;;;;1.25;0.40;;;;;;;12.05;100.00;99042.25;5011060;28;20030;-65
2022/09/27 05:40:16;;;;;;;3.58;0.30;;;;;;;12.03;100.00;99033.81;5020541;28;20038;-65
2022/09/27 05:42:41;;;;;;;1.13;0.55;;;;;;;12.01;100.00;99039.22;5026094;28;20053;-65
2022/09/27 05:45:07;;;;;;;1.08;0.30;;;;;;;12.03;100.00;99044.25;5027467;28;20034;-66
2022/09/27 05:47:33;;;;;;;1.02;0.20;;;;;;;12.00;100.00;99047.22;5027806;28;20033;-66
2022/09/27 05:49:58;;;;;;;1.83;0.20;;;;;;;11.96;100.00;99037.16;5016949;28;20044;-68
2022/09/27 05:52:25;;;;;;;2.20;0.17;;;;;;;11.92;100.00;99041.16;5024945;28;20046;-69
2022/09/27 05:54:50;;;;;;;3.22;0.20;;;;;;;11.93;100.00;99044.56;5027495;28;20029;-68
2022/09/27 05:57:16;;;;;;;0.55;0.20;;;;;;;11.94;100.00;99033.13;5027803;28;20049;-68
2022/09/27 05:59:41;;;;;;;0.98;0.10;;;;;;;11.96;100.00;99033.75;5030329;28;20029;-68
2022/09/27 06:02:11;;;;;;;0.85;0.30;;;;;;;11.95;100.00;99034.75;5030315;28;20037;-70
2022/09/27 06:04:36;;;;;;;0.80;0.20;;;;;;;11.94;100.00;99033.13;5025557;28;20110;-66
2022/09/27 06:07:02;;;;;;;0.60;0.13;;;;;;;12.00;100.00;99040.22;5025582;28;20080;-67
2022/09/27 06:09:28;;;;;;;1.58;0.10;;;;;;;12.02;100.00;99037.41;5031073;28;20441;-67
2022/09/27 06:11:53;;;;;;;0.30;0.10;;;;;;;12.05;100.00;99035.25;5031175;28;20071;-67
2022/09/27 06:14:19;;;;;;;3.70;0.52;;;;;;;12.10;100.00;99034.66;5029295;28;20032;-67
2022/09/27 06:16:45;;;;;;;2.42;0.20;;;;;;;12.13;100.00;99024.66;5029838;28;20084;-67
2022/09/27 06:19:10;;;;;;;1.02;0.20;;;;;;;12.16;100.00;99026.09;5030248;28;20148;-67
2022/09/27 06:21:36;;;;;;;0.60;0.10;;;;;;;12.17;100.00;99020.69;5031092;28;20077;-68
2022/09/27 06:24:02;;;;;;;5.47;0.20;;;;;;;12.20;100.00;99030.75;5030676;28;20040;-68
2022/09/27 06:26:28;;;;;;;3.67;0.20;;;;;;;12.26;100.00;99029.19;5027628;28;20029;-67
2022/09/27 06:28:54;;;;;;;1.38;0.20;;;;;;;12.30;100.00;99025.97;5027414;28;20038;-67
2022/09/27 06:31:21;;;;;;;1.05;0.20;;;;;;;12.37;100.00;99033.84;5009434;28;20144;-70
2022/09/27 06:33:47;;;;;;;2.15;0.30;;;;;;;12.49;100.00;99032.34;5010984;28;20034;-66
2022/09/27 06:36:13;;;;;;;1.92;0.30;;;;;;;12.53;100.00;99030.97;5028112;28;20466;-65
2022/09/27 06:38:39;;;;;;;1.48;0.30;;;;;;;12.62;100.00;99029.81;5029302;28;20033;-67
2022/09/27 06:41:05;;;;;;;1.45;0.30;;;;;;;12.73;100.00;99036.31;5010736;28;20499;-66
2022/09/27 06:43:32;;;;;;;1.98;0.40;;;;;;;12.72;100.00;99037.31;5012967;28;20049;-67
2022/09/27 06:46:05;;;;;;;1.17;0.45;;;;;;;12.70;100.00;99041.13;5029208;28;20025;-64
2022/09/27 06:48:32;;;;;;;1.58;0.55;;;;;;;12.67;100.00;99044.09;5030798;28;20128;-66
2022/09/27 06:50:58;;;;;;;2.72;0.50;;;;;;;12.67;100.00;99046.72;5028147;28;20037;-65
2022/09/27 06:53:24;;;;;;;3.40;0.30;;;;;;;12.68;100.00;99051.75;5030389;28;20033;-65
2022/09/27 06:55:50;;;;;;;2.17;0.30;;;;;;;12.69;100.00;99049.94;5026504;28;20032;-67
2022/09/27 07:01:00;;;;;;;0.55;0.20;;;;;;;12.62;100.00;99055.13;5021487;28;20122;-64
2022/09/27 07:03:30;;;;;;;1.40;0.20;;;;;;;12.68;100.00;99054.38;5010697;28;20160;-69
2022/09/27 07:05:58;;;;;;;3.05;0.43;;;;;;;12.80;100.00;99052.81;5023873;28;20323;-68
2022/09/27 07:08:27;;;;;;;1.70;0.40;;;;;;;12.86;100.00;99054.66;5030484;28;20059;-65
2022/09/27 07:11:01;;;;;;;1.05;0.40;;;;;;;12.84;100.00;99048.81;5026357;28;20466;-65
2022/09/27 07:13:30;;;;;;;1.38;0.40;;;;;;;12.84;100.00;99045.38;5025707;28;20029;-65
2022/09/27 07:15:55;;;;;;;2.00;0.70;;;;;;;12.84;100.00;99035.75;5020912;28;20033;-66
2022/09/27 07:18:21;;;;;;;1.80;0.43;;;;;;;12.88;100.00;99039.59;5029877;28;20373;-64
2022/09/27 07:20:46;;;;;;;1.40;0.55;;;;;;;12.92;100.00;99030.34;5027589;28;20062;-65
2022/09/27 07:23:13;;;;;;;2.15;0.60;;;;;;;12.94;100.00;99041.44;5029839;28;20416;-64
2022/09/27 07:25:39;;;;;;;1.23;0.55;;;;;;;13.01;100.00;99038.03;5015845;28;20548;-64
2022/09/27 07:28:07;;;;;;;1.63;0.47;;;;;;;13.06;100.00;99025.19;5021907;28;20124;-63
2022/09/27 07:30:35;;;;;;;2.30;0.50;;;;;;;13.10;100.00;99032.44;5023963;28;20472;-65
2022/09/27 07:33:04;;;;;;;3.13;0.68;;;;;;;13.14;100.00;99025.84;5027214;28;20041;-64
2022/09/27 07:35:29;;;;;;;2.88;0.57;;;;;;;13.15;100.00;99024.84;5018332;28;20041;-63
2022/09/27 07:37:57;;;;;;;2.90;0.80;;;;;;;13.17;100.00;99024.66;5017818;28;20075;-65
2022/09/27 07:40:24;;;;;;;2.15;0.90;;;;;;;13.19;100.00;99012.19;5008219;28;20025;-64
2022/09/27 07:42:57;;;;;;;6.35;1.17;;;;;;;13.21;100.00;99018.03;5023061;28;20044;-63
2022/09/27 07:45:24;;;;;;;2.05;0.60;;;;;;;13.26;100.00;99021.66;5022147;28;20035;-64
2022/09/27 07:47:50;;;;;;;1.50;0.60;;;;;;;13.30;100.00;99024.69;5026490;28;20029;-63
2022/09/27 07:50:16;;;;;;;1.75;0.40;;;;;;;13.39;100.00;99035.78;5028319;28;20084;-64
2022/09/27 07:52:45;;;;;;;3.30;0.60;;;;;;;13.38;100.00;99034.97;5023098;28;20029;-63
2022/09/27 07:55:12;;;;;;;3.95;0.70;;;;;;;13.36;100.00;99029.13;5024745;28;20022;-65
2022/09/27 07:57:37;;;;;;;2.45;0.70;;;;;;;13.37;100.00;99037.78;5021292;28;20369;-63
2022/09/27 08:00:05;;;;;;;2.83;0.43;;;;;;;13.30;100.00;99032.53;5009605;28;20034;-64
2022/09/27 08:02:32;;;;;;;3.80;0.30;;;;;;;13.17;100.00;99037.75;5017269;28;20041;-65
2022/09/27 08:05:00;;;;;;;1.33;0.50;;;;;;;13.08;100.00;99034.44;5029375;28;20034;-65
2022/09/27 08:07:27;;;;;;;3.38;0.50;;;;;;;13.03;100.00;99029.00;5026215;28;20379;-66
2022/09/27 08:09:52;;;;;;;3.65;0.73;;;;;;;13.06;100.00;99035.66;5027628;28;20449;-64
2022/09/27 08:12:20;;;;;;;5.57;0.40;;;;;;;13.00;100.00;99033.81;5024325;28;20081;-66
2022/09/27 08:14:46;;;;;;;1.58;0.30;;;;;;;12.90;100.00;99021.91;5025639;28;20376;-64
2022/09/27 08:17:12;;;;;;;1.88;0.20;;;;;;;12.84;100.00;99020.06;5025706;28;20042;-64
2022/09/27 08:19:39;;;;;;;4.05;0.20;;;;;;;12.78;100.00;99023.44;5027670;28;20021;-64
2022/09/27 08:22:06;;;;;;;2.85;0.40;;;;;;;12.72;100.00;99023.44;5023099;28;20401;-66
2022/09/27 08:24:32;;;;;;;1.67;0.40;;;;;;;12.70;100.00;99036.69;5011574;28;20029;-64
2022/09/27 08:26:58;;;;;;;3.10;0.43;;;;;;;12.77;100.00;99055.00;5022071;28;20037;-64
2022/09/27 08:29:23;;;;;;;3.05;0.47;;;;;;;12.82;100.00;99053.41;5026376;28;20048;-65
2022/09/27 08:31:53;;;;;;;1.35;0.73;;;;;;;12.81;100.00;99037.94;5027779;28;20057;-65
2022/09/27 08:34:22;;;;;;;1.45;0.30;;;;;;;12.74;100.00;99037.94;5025228;28;20030;-64
2022/09/27 08:36:48;;;;;;;7.50;0.50;;;;;;;12.70;100.00;99031.47;5024192;28;20037;-64
2022/09/27 08:39:13;;;;;;;1.63;0.63;;;;;;;12.72;100.00;99045.16;5024552;28;20055;-63
2022/09/27 08:41:42;;;;;;;20.02;1.73;;;;;;;12.73;100.00;99067.66;5028952;28;20087;-62
2022/09/27 08:44:10;;;;;;;11.20;0.93;;;;;;;12.64;100.00;99092.34;5024934;28;20159;-63
2022/09/27 08:46:52;;;;;;;7.38;0.88;;;;;;;12.51;100.00;99100.06;5021673;28;20555;-62
2022/09/27 08:49:35;;;;;;;9.68;0.75;;;;;;;12.29;100.00;99071.38;5021007;28;20128;-63
2022/09/27 08:52:05;;;;;;;7.70;0.50;;;;;;;11.63;100.00;99034.25;5024188;28;20037;-59
2022/09/27 08:54:32;;;;;;;1.00;0.20;;;;;;;11.68;100.00;99058.97;5027648;28;20159;-61
2022/09/27 08:57:02;;;;;;;2.72;0.50;;;;;;;11.80;100.00;99062.72;5024311;28;20037;-62
2022/09/27 08:59:34;;;;;;;2.03;0.60;;;;;;;11.93;100.00;99068.84;5014481;28;20034;-60
2022/09/27 09:02:01;;;;;;;2.50;0.98;;;;;;;12.05;100.00;99069.16;5020776;28;20118;-63
2022/09/27 09:04:36;;;;;;;2.47;0.70;;;;;;;12.15;100.00;99084.53;5026208;28;20037;-60
2022/09/27 09:07:17;;;;;;;3.45;0.50;;;;;;;12.21;100.00;99071.53;5024922;28;20164;-61
2022/09/27 09:10:11;;;;;;;1.80;0.40;;;;;;;12.34;100.00;99072.59;5027558;28;20049;-68
2022/09/27 09:13:04;;;;;;;4.30;0.40;;;;;;;12.44;100.00;99071.28;5023174;28;20037;-71
2022/09/27 09:15:53;;;;;;;2.03;0.40;;;;;;;12.50;100.00;99069.72;5017241;28;20485;-67
2022/09/27 09:18:30;;;;;;;0.77;0.20;;;;;;;12.49;100.00;99061.06;5026403;28;20033;-62
2022/09/27 09:21:02;;;;;;;1.13;0.20;;;;;;;12.54;100.00;99063.91;5013111;28;20041;-62
2022/09/27 09:23:48;;;;;;;1.05;0.30;;;;;;;12.57;100.00;99067.97;5019454;28;20116;-64
2022/09/27 09:26:33;;;;;;;0.80;0.20;;;;;;;12.67;100.00;99065.00;5011890;28;20497;-65
2022/09/27 09:29:49;;;;;;;2.65;0.50;;;;;;;12.69;100.00;99053.38;5025066;28;20522;-68
2022/09/27 09:32:43;;;;;;;2.88;0.60;;;;;;;12.79;100.00;99055.63;5019566;28;20034;-63
2022/09/27 09:35:16;;;;;;;2.75;1.23;;;;;;;12.91;100.00;99054.88;4995296;28;20049;-63
2022/09/27 09:37:49;;;;;;;1.00;0.57;;;;;;;12.93;100.00;99052.06;5025926;28;20085;-66
2022/09/27 09:40:18;;;;;;;1.67;0.55;;;;;;;12.96;100.00;99057.72;5029879;28;20021;-63
2022/09/27 09:43:24;;;;;;;1.75;0.40;;;;;;;12.93;100.00;99052.88;5031905;28;20045;-66
2022/09/27 09:46:01;;;;;;;2.95;0.30;;;;;;;12.93;100.00;99046.84;5006878;28;20045;-69
2022/09/27 09:49:03;;;;;;;1.17;0.40;;;;;;;12.96;100.00;99049.06;5023295;28;20037;-67
2022/09/27 09:51:36;;;;;;;1.13;0.38;;;;;;;13.08;100.00;99041.50;5026924;28;20037;-63
2022/09/27 09:54:34;;;;;;;3.65;0.45;;;;;;;13.11;100.00;99038.50;5021961;28;20044;-65
2022/09/27 09:57:12;;;;;;;4.82;0.30;;;;;;;13.18;100.00;99034.13;4985487;28;20051;-62
2022/09/27 09:59:46;;;;;;;3.67;0.30;;;;;;;13.28;100.00;99039.78;5026902;28;20059;-63
2022/09/27 10:02:33;;;;;;;2.38;0.40;;;;;;;13.51;100.00;99037.63;5025601;28;20389;-63
2022/09/27 10:05:00;;;;;;;1.65;0.30;;;;;;;13.63;100.00;99031.81;5031629;28;20385;-64
2022/09/27 10:07:27;;;;;;;4.05;0.22;;;;;;;13.73;100.00;99038.25;5026365;28;20029;-61
2022/09/27 10:09:56;;;;;;;3.10;0.77;;;;;;;13.84;100.00;99035.06;5019488;28;20100;-61
2022/09/27 10:12:22;;;;;;;4.85;0.50;;;;;;;13.89;100.00;99042.31;5025828;28;20034;-65
2022/09/27 10:14:49;;;;;;;2.83;0.55;;;;;;;13.98;100.00;99037.69;5031820;28;20056;-63
2022/09/27 10:17:27;;;;;;;1.27;0.20;;;;;;;14.00;100.00;99036.50;5022835;28;20104;-64
2022/09/27 10:19:57;;;;;;;9.38;0.30;;;;;;;14.09;100.00;99032.66;5012143;28;20034;-65
2022/09/27 10:22:31;;;;;;;1.40;0.20;;;;;;;14.08;100.00;99036.28;5024722;28;20025;-66
2022/09/27 10:25:01;;;;;;;2.00;0.30;;;;;;;14.13;100.00;99036.50;5030369;28;20033;-63
2022/09/27 10:27:36;;;;;;;0.82;0.30;;;;;;;14.11;100.00;99041.13;5029088;28;20036;-66
2022/09/27 10:30:03;;;;;;;0.90;0.30;;;;;;;14.14;100.00;99035.50;5025128;28;20026;-63
2022/09/27 10:32:36;;;;;;;4.22;0.30;;;;;;;14.29;100.00;99035.25;5030504;28;20124;-63
2022/09/27 10:35:27;;;;;;;1.60;0.22;;;;;;;14.41;100.00;99032.84;5031637;28;20428;-65
2022/09/27 10:37:53;;;;;;;1.58;0.20;;;;;;;14.41;100.00;99031.06;5026952;28;20029;-65
2022/09/27 10:40:28;;;;;;;0.70;0.30;;;;;;;14.46;100.00;99035.69;5028872;28;20113;-62
2022/09/27 10:42:54;;;;;;;1.73;0.20;;;;;;;14.53;100.00;99029.44;5030472;28;20042;-63
2022/09/27 10:45:33;;;;;;;1.92;0.20;;;;;;;14.57;100.00;99027.19;5030738;28;20381;-65
2022/09/27 10:48:00;;;;;;;1.08;0.20;;;;;;;14.63;100.00;99036.88;5027124;28;20108;-65
2022/09/27 10:50:30;;;;;;;0.50;0.20;;;;;;;14.66;100.00;99038.25;5028095;28;20033;-63
2022/09/27 10:53:15;;;;;;;2.88;0.30;;;;;;;14.63;100.00;99039.50;5028463;28;20111;-63
2022/09/27 10:55:47;;;;;;;0.28;0.10;;;;;;;14.61;100.00;99046.75;5024086;28;20491;-67
2022/09/27 10:58:30;;;;;;;0.65;0.15;;;;;;;14.54;100.00;99046.75;5026427;28;20122;-64
2022/09/27 11:01:07;;;;;;;0.80;0.20;;;;;;;14.54;100.00;99057.25;5023027;28;20033;-66
2022/09/27 11:03:45;;;;;;;2.35;0.30;;;;;;;14.63;100.00;99060.47;5024663;28;20041;-64
2022/09/27 11:06:37;;;;;;;0.68;0.30;;;;;;;14.68;100.00;99052.75;5014442;28;20512;-66
2022/09/27 11:09:28;;;;;;;5.00;0.63;;;;;;;14.73;100.00;99055.56;5022468;28;20404;-63
2022/09/27 11:12:13;;;;;;;3.28;0.20;;;;;;;14.59;100.00;99049.56;5019958;28;20057;-65
2022/09/27 11:14:40;;;;;;;1.15;0.22;;;;;;;14.58;100.00;99047.97;5026633;28;20048;-66
2022/09/27 11:17:12;;;;;;;1.80;0.32;;;;;;;14.56;100.00;99038.69;5020836;28;20055;-63
2022/09/27 11:19:43;;;;;;;3.88;0.40;;;;;;;14.52;100.00;99032.25;5022572;28;20017;-65
2022/09/27 11:22:47;;;;;;;2.08;0.30;;;;;;;14.41;100.00;99035.44;5021747;28;20552;-65
2022/09/27 11:25:37;;;;;;;3.13;0.30;;;;;;;14.38;100.00;99031.44;5020955;28;20034;-65
2022/09/27 11:28:37;;;;;;;0.60;0.20;;;;;;;14.38;100.00;99033.25;5017979;28;20029;-64
2022/09/27 11:31:33;;;;;;;6.72;0.50;;;;;;;14.33;100.00;99027.81;5018294;28;20064;-66
2022/09/27 11:34:21;;;;;;;1.55;0.30;;;;;;;14.35;100.00;99028.41;5023877;28;20498;-65
2022/09/27 11:37:22;;;;;;;3.50;0.40;;;;;;;14.35;100.00;99028.41;5023205;28;20044;-63
2022/09/27 12:20:45;;;;;;;0.50;0.30;;;;;;;15.13;100.00;99018.72;5124951;27;21039;-62
2022/09/27 12:23:23;;;;;;;2.03;0.30;;;;;;;15.09;100.00;99023.59;5105510;28;20031;-61
2022/09/27 12:25:57;;;;;;;0.43;0.10;;;;;;;15.07;100.00;99015.13;5105523;28;20031;-62
2022/09/27 12:28:32;;;;;;;0.47;0.20;;;;;;;15.07;100.00;99014.34;5105422;28;20483;-62